Latest Weather Observations for Warburto Point

IDS60801

Issued at 9:01 pm CST Thursday 22 June 2017 (issued every 30 minutes, with the page automatically refreshed every 10 minutes)

About weather observations | Map of weather stations | Latest weather observations for SA | Other Formats
Station Details ID: 022053 Name: WARBURTO POINT Lat: -34.00 Lon: 137.53 Height: 1.0 m
Data from the previous 72 hours. | See also: Recent months for locations in South Australia
Date/Time
CST
Temp
°C
App
Temp
°C
Dew
Point
°C
Rel
Hum
%
Delta-T
°C
Wind Press
QNH
hPa
Press
MSL
hPa
Rain since
9am
mm
Dir  Spd
km/h
Gust
km/h
Spd
kts
Gust
kts
22/09:00pm - - - - - ENE 17 19 9 10 - - -
22/08:30pm - - - - - E 15 19 8 10 - - -
22/08:00pm - - - - - E 17 19 9 10 - - -
22/07:30pm - - - - - E 15 17 8 9 - - -
22/07:00pm - - - - - E 15 17 8 9 - - -
22/06:30pm - - - - - E 15 17 8 9 - - -
22/06:00pm - - - - - E 13 15 7 8 - - -
22/05:30pm - - - - - E 9 9 5 5 - - -
22/05:00pm - - - - - NE 11 13 6 7 - - -
22/04:30pm - - - - - NE 13 15 7 8 - - -
22/04:00pm - - - - - NNE 15 17 8 9 - - -
22/03:30pm - - - - - NNE 17 20 9 11 - - -
22/03:00pm - - - - - NNE 17 20 9 11 - - -
22/02:30pm - - - - - N 20 26 11 14 - - -
22/02:00pm - - - - - N 19 22 10 12 - - -
22/01:30pm - - - - - NNE 17 20 9 11 - - -
22/01:00pm - - - - - NNE 15 19 8 10 - - -
22/12:30pm - - - - - NNE 17 20 9 11 - - -
22/12:00pm - - - - - NNE 17 20 9 11 - - -
22/11:30am - - - - - N 17 22 9 12 - - -
22/11:00am - - - - - NNE 19 24 10 13 - - -
22/10:30am - - - - - NNE 19 24 10 13 - - -
22/10:00am - - - - - NE 17 20 9 11 - - -
22/09:30am - - - - - NE 17 20 9 11 - - -
22/09:00am - - - - - NE 17 20 9 11 - - -
22/08:30am - - - - - ENE 17 20 9 11 - - -
22/08:00am - - - - - ENE 19 22 10 12 - - -
22/07:30am - - - - - ENE 19 19 10 10 - - -
22/07:00am - - - - - ENE 17 19 9 10 - - -
22/06:30am - - - - - ENE 17 19 9 10 - - -
22/06:00am - - - - - ENE 13 15 7 8 - - -
22/05:30am - - - - - NE 15 19 8 10 - - -
22/05:00am - - - - - NE 15 19 8 10 - - -
22/04:30am - - - - - NE 17 19 9 10 - - -
22/04:00am - - - - - NE 17 20 9 11 - - -
22/03:30am - - - - - ENE 17 19 9 10 - - -
22/03:00am - - - - - ENE 17 19 9 10 - - -
22/02:30am - - - - - ENE 19 22 10 12 - - -
22/02:00am - - - - - ENE 17 19 9 10 - - -
22/01:30am - - - - - NE 15 17 8 9 - - -
22/01:00am - - - - - ENE 13 13 7 7 - - -
22/12:30am - - - - - E 13 15 7 8 - - -
22/12:00am - - - - - E 13 15 7 8 - - -
 
Date/Time
CST
Temp
°C
App
Temp
°C
Dew
Point
°C
Rel
Hum
%
Delta-T
°C
Wind Press
QNH
hPa
Press
MSL
hPa
Rain since
9am
mm
Dir  Spd
km/h
Gust
km/h
Spd
kts
Gust
kts
21/11:30pm - - - - - E 17 19 9 10 - - -
21/11:00pm - - - - - ESE 17 19 9 10 - - -
21/10:30pm - - - - - E 17 19 9 10 - - -
21/10:00pm - - - - - E 19 20 10 11 - - -
21/09:30pm - - - - - E 19 22 10 12 - - -
21/09:00pm - - - - - E 19 24 10 13 - - -
21/08:30pm - - - - - E 17 22 9 12 - - -
21/08:00pm - - - - - E 19 20 10 11 - - -
21/07:30pm - - - - - ESE 17 20 9 11 - - -
21/07:00pm - - - - - SE 13 13 7 7 - - -
21/06:30pm - - - - - S 9 11 5 6 - - -
21/06:00pm - - - - - SSW 11 11 6 6 - - -
21/05:30pm - - - - - SW 11 13 6 7 - - -
21/05:00pm - - - - - SW 11 13 6 7 - - -
21/04:30pm - - - - - SW 11 13 6 7 - - -
21/04:00pm - - - - - SW 11 13 6 7 - - -
21/03:30pm - - - - - W 11 13 6 7 - - -
21/03:00pm - - - - - W 13 15 7 8 - - -
21/02:30pm - - - - - WNW 11 15 6 8 - - -
21/02:00pm - - - - - W 13 15 7 8 - - -
21/01:30pm - - - - - SW 13 17 7 9 - - -
21/01:00pm - - - - - WSW 9 13 5 7 - - -
21/12:30pm - - - - - WSW 9 13 5 7 - - -
21/12:00pm - - - - - W 11 13 6 7 - - -
21/11:30am - - - - - SW 11 13 6 7 - - -
21/11:00am - - - - - SE 13 17 7 9 - - -
21/10:30am - - - - - N 7 9 4 5 - - -
21/10:00am - - - - - NE 9 13 5 7 - - -
21/09:30am - - - - - SE 4 7 2 4 - - -
21/09:00am - - - - - E 7 11 4 6 - - -
21/08:30am - - - - - SE 13 13 7 7 - - -
21/08:00am - - - - - SE 13 15 7 8 - - -
21/07:30am - - - - - ESE 15 15 8 8 - - -
21/07:00am - - - - - SE 11 13 6 7 - - -
21/06:30am - - - - - ESE 15 17 8 9 - - -
21/06:00am - - - - - SE 13 15 7 8 - - -
21/05:30am - - - - - SE 15 15 8 8 - - -
21/05:00am - - - - - ESE 13 15 7 8 - - -
21/04:30am - - - - - SE 9 11 5 6 - - -
21/04:00am - - - - - ESE 9 11 5 6 - - -
21/03:30am - - - - - ENE 9 11 5 6 - - -
21/03:00am - - - - - ENE 13 15 7 8 - - -
21/02:30am - - - - - ESE 7 9 4 5 - - -
21/02:00am - - - - - E 7 9 4 5 - - -
21/01:30am - - - - - CALM 0 0 0 0 - - -
21/01:00am - - - - - SSE 6 9 3 5 - - -
21/12:30am - - - - - SW 6 7 3 4 - - -
21/12:00am - - - - - E 13 17 7 9 - - -
 
Date/Time
CST
Temp
°C
App
Temp
°C
Dew
Point
°C
Rel
Hum
%
Delta-T
°C
Wind Press
QNH
hPa
Press
MSL
hPa
Rain since
9am
mm
Dir  Spd
km/h
Gust
km/h
Spd
kts
Gust
kts
20/11:30pm - - - - - ENE 17 20 9 11 - - -
20/11:00pm - - - - - ENE 11 13 6 7 - - -
20/10:30pm - - - - - E 9 13 5 7 - - -
20/10:00pm - - - - - E 15 17 8 9 - - -
20/09:30pm - - - - - ENE 11 17 6 9 - - -
20/09:00pm - - - - - E 15 17 8 9 - - -
20/08:30pm - - - - - E 15 17 8 9 - - -
20/08:00pm - - - - - E 17 17 9 9 - - -
20/07:30pm - - - - - ESE 13 15 7 8 - - -
20/07:00pm - - - - - ESE 13 15 7 8 - - -
20/06:30pm - - - - - ESE 11 13 6 7 - - -
20/06:00pm - - - - - SE 9 9 5 5 - - -
20/05:30pm - - - - - SE 7 9 4 5 - - -
20/05:00pm - - - - - CALM 0 0 0 0 - - -
20/04:30pm - - - - - CALM 0 0 0 0 - - -
20/04:00pm - - - - - SE 2 7 1 4 - - -
20/03:30pm - - - - - NNW 7 9 4 5 - - -
20/03:00pm - - - - - N 7 9 4 5 - - -
20/02:30pm - - - - - N 11 11 6 6 - - -
20/02:00pm - - - - - N 11 13 6 7 - - -
20/01:30pm - - - - - N 13 15 7 8 - - -
20/01:00pm - - - - - N 13 17 7 9 - - -
20/12:30pm - - - - - N 15 19 8 10 - - -
20/12:00pm - - - - - N 17 20 9 11 - - -
20/11:30am - - - - - NNE 17 20 9 11 - - -
20/11:00am - - - - - N 15 19 8 10 - - -
20/10:30am - - - - - NNE 13 15 7 8 - - -
20/10:00am - - - - - NNE 13 17 7 9 - - -
20/09:30am - - - - - NE 13 15 7 8 - - -
20/09:00am - - - - - ENE 13 15 7 8 - - -
20/08:30am - - - - - ENE 13 15 7 8 - - -
20/08:00am - - - - - ENE 17 19 9 10 - - -
20/07:30am - - - - - ENE 17 19 9 10 - - -
20/07:00am - - - - - ENE 17 19 9 10 - - -
20/06:30am - - - - - NE 17 17 9 9 - - -
20/06:00am - - - - - NE 19 20 10 11 - - -
20/05:30am - - - - - NE 17 19 9 10 - - -
20/05:00am - - - - - NE 19 19 10 10 - - -
20/04:30am - - - - - NE 17 19 9 10 - - -
20/04:00am - - - - - ENE 17 19 9 10 - - -
20/03:30am - - - - - ENE 17 19 9 10 - - -
20/03:00am - - - - - ENE 20 22 11 12 - - -
20/02:30am - - - - - ENE 17 19 9 10 - - -
20/02:00am - - - - - ENE 17 17 9 9 - - -
20/01:30am - - - - - ENE 17 17 9 9 - - -
20/01:00am - - - - - NE 15 15 8 8 - - -
20/12:30am - - - - - NE 13 17 7 9 - - -
20/12:00am - - - - - ENE 15 17 8 9 - - -
 
Date/Time
CST
Temp
°C
App
Temp
°C
Dew
Point
°C
Rel
Hum
%
Delta-T
°C
Wind Press
QNH
hPa
Press
MSL
hPa
Rain since
9am
mm
Dir  Spd
km/h
Gust
km/h
Spd
kts
Gust
kts
19/11:30pm - - - - - ENE 15 20 8 11 - - -
19/11:00pm - - - - - ENE 15 19 8 10 - - -
19/10:30pm - - - - - ENE 17 22 9 12 - - -
19/10:00pm - - - - - E 19 22 10 12 - - -
19/09:30pm - - - - - E 15 19 8 10 - - -

Other Formats:

Comma delimited format used in spreadsheet applications
http://www.bom.gov.au/fwo/IDS60801/IDS60801.94666.axf

JavaScript Object Notation format (JSON) in row-major order
http://www.bom.gov.au/fwo/IDS60801/IDS60801.94666.json